Time;durP1;ratioP1;P1;durP2;ratioP2;P2;SDS_P1;SDS_P2;PMS_P1;PMS_P2;Temp;Humidity;BMP_temperature;BMP_pressure;BME280_temperature;BME280_humidity;BME280_pressure;Samples;Min_cycle;Max_cycle;Signal;HPM_P1;HPM_P2
2024/01/04 00:00:00;;;;;;;3.70;1.00;;;;;;;;;;4972821;28;20486;-73
2024/01/04 06:00:13;;;;;;;2.23;1.27;;;;;;;;;;6152165;23;20425;-89
2024/01/04 06:02:39;;;;;;;5.13;1.10;;;;;;;;;;4971287;28;21038;-74
2024/01/04 06:05:05;;;;;;;1.27;1.20;;;;;;;;;;4973205;28;20506;-72
2024/01/04 06:07:31;;;;;;;2.30;1.27;;;;;;;;;;4972664;28;20420;-73
2024/01/04 06:09:57;;;;;;;1.97;1.23;;;;;;;;;;4973920;28;20412;-73
2024/01/04 06:12:23;;;;;;;8.97;1.30;;;;;;;;;;4973952;28;20443;-73
2024/01/04 06:14:51;;;;;;;1.63;1.10;;;;;;;;;;4973854;28;20463;-72
2024/01/04 06:17:17;;;;;;;1.63;1.13;;;;;;;;;;4973973;28;20835;-72
2024/01/04 06:19:44;;;;;;;2.90;1.47;;;;;;;;;;4973583;28;20436;-73
2024/01/04 06:22:10;;;;;;;2.10;1.10;;;;;;;;;;4973627;28;20432;-73
2024/01/04 06:24:36;;;;;;;8.03;1.43;;;;;;;;;;4973981;28;20467;-73
2024/01/04 06:27:02;;;;;;;5.90;1.47;;;;;;;;;;4973600;28;20408;-72
2024/01/04 06:29:29;;;;;;;5.37;1.30;;;;;;;;;;4972221;28;20821;-72
2024/01/04 06:31:55;;;;;;;2.17;1.23;;;;;;;;;;4973535;28;20442;-73
2024/01/04 06:34:22;;;;;;;3.13;1.47;;;;;;;;;;4973215;28;20451;-72
2024/01/04 06:36:48;;;;;;;3.53;1.50;;;;;;;;;;4973470;28;20419;-73
2024/01/04 06:39:14;;;;;;;3.53;1.30;;;;;;;;;;4973350;28;20412;-73
2024/01/04 06:41:43;;;;;;;3.40;1.17;;;;;;;;;;4973565;28;20919;-73
2024/01/04 06:44:09;;;;;;;3.33;1.20;;;;;;;;;;4973377;28;20416;-73
2024/01/04 06:46:35;;;;;;;3.50;1.20;;;;;;;;;;4973576;28;20933;-72
2024/01/04 06:49:01;;;;;;;4.10;1.43;;;;;;;;;;4973174;28;20404;-73
2024/01/04 06:51:26;;;;;;;7.60;1.23;;;;;;;;;;4972927;28;20436;-71
2024/01/04 06:53:52;;;;;;;4.60;1.37;;;;;;;;;;4973010;28;20929;-71
2024/01/04 06:56:19;;;;;;;3.90;1.20;;;;;;;;;;4973011;28;20826;-71
2024/01/04 06:58:45;;;;;;;1.70;1.30;;;;;;;;;;4973065;28;20404;-71
2024/01/04 07:01:11;;;;;;;4.47;2.50;;;;;;;;;;4973065;28;20482;-72
2024/01/04 07:03:37;;;;;;;5.20;1.60;;;;;;;;;;4972884;28;20421;-71
2024/01/04 07:06:03;;;;;;;9.70;1.80;;;;;;;;;;4973005;28;20459;-71
2024/01/04 07:08:29;;;;;;;5.10;1.77;;;;;;;;;;4973071;28;20443;-71
2024/01/04 07:10:55;;;;;;;6.37;2.10;;;;;;;;;;4972855;28;20803;-72
2024/01/04 07:13:22;;;;;;;6.47;1.57;;;;;;;;;;4972879;28;20506;-71
2024/01/04 07:15:49;;;;;;;3.70;1.97;;;;;;;;;;4975348;28;20614;-72
2024/01/04 07:18:15;;;;;;;2.80;1.40;;;;;;;;;;4976869;28;20914;-72
2024/01/04 07:20:41;;;;;;;6.53;1.37;;;;;;;;;;4976884;28;20428;-72
2024/01/04 07:23:08;;;;;;;3.97;1.50;;;;;;;;;;4976694;28;20404;-71
2024/01/04 07:25:34;;;;;;;2.07;1.40;;;;;;;;;;4976990;28;20490;-72
2024/01/04 07:28:00;;;;;;;3.13;1.60;;;;;;;;;;4976892;28;20419;-72
2024/01/04 07:30:26;;;;;;;3.30;1.37;;;;;;;;;;4976849;28;20443;-72
2024/01/04 07:32:52;;;;;;;3.73;1.40;;;;;;;;;;4976631;28;20419;-72
2024/01/04 07:35:23;;;;;;;4.60;1.80;;;;;;;;;;4976464;28;20467;-72
2024/01/04 07:37:49;;;;;;;4.90;1.47;;;;;;;;;;4976883;28;20458;-72
2024/01/04 07:40:15;;;;;;;5.37;1.30;;;;;;;;;;4976628;28;20420;-71
2024/01/04 07:42:41;;;;;;;2.23;1.10;;;;;;;;;;4975301;28;20426;-70
2024/01/04 07:45:07;;;;;;;2.70;1.10;;;;;;;;;;4976327;28;20514;-71
2024/01/04 07:47:36;;;;;;;2.00;1.30;;;;;;;;;;4976640;28;20930;-71
2024/01/04 07:50:04;;;;;;;1.90;1.10;;;;;;;;;;4976410;28;20419;-71
2024/01/04 07:52:29;;;;;;;3.07;1.30;;;;;;;;;;4977224;28;20951;-71
2024/01/04 07:54:56;;;;;;;2.80;1.17;;;;;;;;;;4976013;28;20557;-71
2024/01/04 07:57:22;;;;;;;2.20;1.00;;;;;;;;;;4976262;28;20414;-71
2024/01/04 07:59:48;;;;;;;2.13;1.30;;;;;;;;;;4976444;28;20399;-71
2024/01/04 08:02:15;;;;;;;6.93;1.50;;;;;;;;;;4976043;28;20474;-71
2024/01/04 08:04:41;;;;;;;2.93;2.40;;;;;;;;;;4975790;28;20412;-71
2024/01/04 08:07:07;;;;;;;7.60;1.20;;;;;;;;;;4975990;28;20416;-71
2024/01/04 08:09:33;;;;;;;1.63;1.00;;;;;;;;;;4976077;28;20919;-71
2024/01/04 08:11:59;;;;;;;1.63;1.13;;;;;;;;;;4975863;28;20432;-71
2024/01/04 08:14:25;;;;;;;2.00;1.10;;;;;;;;;;4975514;28;20519;-71
2024/01/04 08:16:51;;;;;;;4.63;1.50;;;;;;;;;;4975831;28;20408;-71
2024/01/04 08:19:17;;;;;;;2.77;1.33;;;;;;;;;;4975981;28;20404;-72
2024/01/04 08:21:43;;;;;;;6.73;1.93;;;;;;;;;;4975607;28;21002;-71
2024/01/04 08:24:09;;;;;;;4.00;1.63;;;;;;;;;;4975764;28;20511;-71
2024/01/04 08:26:41;;;;;;;1.67;1.00;;;;;;;;;;4975260;28;20415;-72
2024/01/04 08:29:08;;;;;;;4.47;1.50;;;;;;;;;;4966157;28;20936;-71
2024/01/04 08:31:34;;;;;;;4.57;1.30;;;;;;;;;;4965949;28;20447;-77
2024/01/04 08:34:00;;;;;;;1.20;1.00;;;;;;;;;;4976049;28;20420;-71
2024/01/04 08:36:25;;;;;;;6.73;2.20;;;;;;;;;;4976188;28;20473;-74
2024/01/04 08:38:51;;;;;;;4.57;1.90;;;;;;;;;;4989833;28;20416;-71
2024/01/04 08:41:17;;;;;;;5.50;1.50;;;;;;;;;;4977761;28;20980;-71
2024/01/04 08:43:43;;;;;;;6.27;1.33;;;;;;;;;;4975541;28;20464;-71
2024/01/04 08:46:10;;;;;;;3.37;1.43;;;;;;;;;;4975637;28;20929;-74
2024/01/04 08:48:35;;;;;;;5.60;2.13;;;;;;;;;;4975779;28;20923;-74
2024/01/04 08:51:01;;;;;;;4.70;1.50;;;;;;;;;;4975587;28;20471;-74
2024/01/04 08:53:27;;;;;;;3.80;1.77;;;;;;;;;;4975632;28;20463;-74
2024/01/04 08:55:53;;;;;;;5.53;1.60;;;;;;;;;;4975170;28;20524;-74
2024/01/04 08:58:19;;;;;;;7.57;1.97;;;;;;;;;;4975369;28;20408;-73
2024/01/04 09:00:45;;;;;;;8.83;1.73;;;;;;;;;;4968046;28;20476;-74
2024/01/04 09:03:11;;;;;;;2.60;1.70;;;;;;;;;;4968413;28;20483;-72
2024/01/04 09:05:37;;;;;;;6.73;2.10;;;;;;;;;;4971847;28;20424;-72
2024/01/04 09:08:05;;;;;;;5.20;1.80;;;;;;;;;;4974965;28;20934;-73
2024/01/04 09:10:31;;;;;;;5.60;2.13;;;;;;;;;;4974774;28;20842;-73
2024/01/04 09:12:57;;;;;;;5.43;2.00;;;;;;;;;;4974904;28;20412;-72
2024/01/04 09:15:25;;;;;;;6.60;1.90;;;;;;;;;;4974625;28;20474;-72
2024/01/04 09:17:51;;;;;;;5.17;1.70;;;;;;;;;;4973478;28;20419;-72
2024/01/04 09:20:17;;;;;;;11.37;2.10;;;;;;;;;;4972311;28;20892;-74
2024/01/04 09:22:43;;;;;;;1.90;1.30;;;;;;;;;;4962806;28;20428;-73
2024/01/04 09:25:09;;;;;;;1.83;1.53;;;;;;;;;;4962584;28;20494;-73
2024/01/04 09:27:35;;;;;;;9.37;2.17;;;;;;;;;;4964993;28;20491;-74
2024/01/04 09:30:01;;;;;;;4.03;1.53;;;;;;;;;;4967313;28;20428;-72
2024/01/04 09:32:29;;;;;;;1.60;1.07;;;;;;;;;;4962833;28;20435;-71
2024/01/04 09:34:55;;;;;;;2.87;1.20;;;;;;;;;;4974023;28;20511;-72
2024/01/04 09:37:21;;;;;;;9.60;1.60;;;;;;;;;;4974461;28;20416;-73
2024/01/04 09:39:47;;;;;;;4.27;1.33;;;;;;;;;;4973249;28;20416;-72
2024/01/04 09:42:14;;;;;;;2.50;1.50;;;;;;;;;;4974077;28;20845;-71
2024/01/04 09:44:42;;;;;;;5.03;1.50;;;;;;;;;;4973961;28;20416;-72
2024/01/04 09:47:09;;;;;;;1.97;1.67;;;;;;;;;;4973705;28;20973;-73
2024/01/04 09:49:39;;;;;;;3.93;1.50;;;;;;;;;;4973073;28;20456;-73
2024/01/04 09:52:06;;;;;;;5.13;1.53;;;;;;;;;;4967190;28;21062;-73
2024/01/04 09:54:32;;;;;;;9.33;1.93;;;;;;;;;;4964608;28;20999;-74
2024/01/04 09:57:00;;;;;;;10.93;2.07;;;;;;;;;;4964199;28;20440;-74
2024/01/04 09:59:26;;;;;;;6.37;2.50;;;;;;;;;;4980538;28;20412;-73
2024/01/04 10:01:52;;;;;;;7.43;2.80;;;;;;;;;;4964095;28;20455;-74
2024/01/04 10:04:18;;;;;;;12.93;2.57;;;;;;;;;;4972089;28;20420;-73
2024/01/04 10:06:45;;;;;;;4.27;1.53;;;;;;;;;;4973818;28;20435;-73
2024/01/04 10:09:32;;;;;;;10.40;1.60;;;;;;;;;;4972551;28;20420;-73
2024/01/04 10:11:58;;;;;;;6.30;1.73;;;;;;;;;;4973670;28;20427;-72
2024/01/04 10:14:25;;;;;;;6.43;1.97;;;;;;;;;;4973642;28;20408;-72
2024/01/04 10:16:51;;;;;;;2.73;1.30;;;;;;;;;;4973758;28;20470;-72
2024/01/04 10:19:17;;;;;;;7.67;2.03;;;;;;;;;;4973725;28;20412;-72
2024/01/04 10:21:43;;;;;;;4.10;1.47;;;;;;;;;;4973702;28;20438;-75
2024/01/04 10:24:14;;;;;;;6.93;1.50;;;;;;;;;;4973358;28;20416;-72
2024/01/04 10:26:43;;;;;;;3.83;1.40;;;;;;;;;;4972233;28;20470;-72
2024/01/04 10:29:09;;;;;;;4.10;1.77;;;;;;;;;;4973540;28;20412;-74
2024/01/04 10:31:35;;;;;;;3.97;2.13;;;;;;;;;;4973421;28;20447;-75
2024/01/04 10:34:02;;;;;;;6.43;1.80;;;;;;;;;;4973268;28;20455;-75
2024/01/04 10:36:28;;;;;;;8.43;2.20;;;;;;;;;;4973519;28;20460;-73
2024/01/04 10:38:58;;;;;;;4.63;1.60;;;;;;;;;;4973449;28;20922;-76
2024/01/04 10:41:25;;;;;;;5.70;2.23;;;;;;;;;;4973099;28;20431;-71
2024/01/04 10:43:51;;;;;;;3.10;1.20;;;;;;;;;;4973142;28;20416;-70
2024/01/04 10:46:17;;;;;;;3.73;1.60;;;;;;;;;;4973280;28;20465;-70
2024/01/04 10:48:46;;;;;;;9.13;2.77;;;;;;;;;;4973300;28;20423;-74
2024/01/04 10:51:13;;;;;;;11.43;1.63;;;;;;;;;;4972770;28;20435;-73
2024/01/04 10:53:39;;;;;;;6.50;1.73;;;;;;;;;;4973166;28;20423;-71
2024/01/04 10:56:06;;;;;;;7.40;1.50;;;;;;;;;;4970842;28;20830;-71
2024/01/04 10:58:36;;;;;;;8.40;1.90;;;;;;;;;;4966963;28;20491;-71
2024/01/04 11:01:02;;;;;;;5.20;1.87;;;;;;;;;;4968802;28;20992;-71
2024/01/04 11:03:31;;;;;;;8.63;1.77;;;;;;;;;;4972856;28;20420;-71
2024/01/04 11:05:59;;;;;;;1.90;1.20;;;;;;;;;;4970971;28;20788;-71
2024/01/04 11:08:25;;;;;;;1.10;1.00;;;;;;;;;;4965212;28;20927;-71
2024/01/04 11:10:52;;;;;;;2.27;1.10;;;;;;;;;;4964542;28;20576;-71
2024/01/04 11:13:18;;;;;;;5.00;0.90;;;;;;;;;;4961157;28;20772;-74
2024/01/04 11:15:45;;;;;;;4.73;1.10;;;;;;;;;;4971650;28;20483;-72
2024/01/04 11:18:11;;;;;;;3.03;1.13;;;;;;;;;;4958041;28;20483;-74
2024/01/04 11:20:51;;;;;;;2.50;1.70;;;;;;;;;;4953628;28;20433;-75
2024/01/04 11:23:39;;;;;;;2.20;0.90;;;;;;;;;;4970341;28;20447;-73
2024/01/04 11:26:11;;;;;;;1.70;1.10;;;;;;;;;;4972915;28;20432;-72
2024/01/04 11:28:38;;;;;;;1.87;0.80;;;;;;;;;;4972719;28;20419;-72
2024/01/04 11:31:04;;;;;;;1.17;0.90;;;;;;;;;;4972523;28;20431;-72
2024/01/04 11:33:32;;;;;;;2.17;1.40;;;;;;;;;;4971477;28;20420;-73
2024/01/04 11:35:58;;;;;;;1.27;1.00;;;;;;;;;;4972990;28;20467;-73
2024/01/04 11:38:34;;;;;;;2.30;1.17;;;;;;;;;;4972856;28;20418;-73
2024/01/04 11:41:01;;;;;;;5.03;1.80;;;;;;;;;;4968515;28;20649;-73
2024/01/04 11:43:40;;;;;;;2.33;1.93;;;;;;;;;;4971584;28;20500;-72
2024/01/04 11:46:23;;;;;;;2.43;1.50;;;;;;;;;;4972516;28;20767;-72
2024/01/04 11:48:56;;;;;;;9.97;1.30;;;;;;;;;;4972045;28;20500;-72
2024/01/04 11:51:35;;;;;;;1.07;0.90;;;;;;;;;;4971727;28;20499;-72
2024/01/04 11:54:02;;;;;;;1.53;0.90;;;;;;;;;;4972599;28;20435;-71
2024/01/04 11:56:28;;;;;;;1.87;1.23;;;;;;;;;;4974253;28;20473;-72
2024/01/04 11:58:54;;;;;;;1.80;1.27;;;;;;;;;;4974673;28;20408;-72
2024/01/04 12:01:23;;;;;;;3.40;1.70;;;;;;;;;;4974491;28;20447;-72
2024/01/04 12:03:51;;;;;;;3.20;1.00;;;;;;;;;;4977975;28;20412;-73
2024/01/04 12:06:19;;;;;;;3.10;1.10;;;;;;;;;;4977697;28;20422;-71
2024/01/04 12:08:45;;;;;;;4.00;1.20;;;;;;;;;;4979008;28;20499;-72
2024/01/04 12:11:11;;;;;;;1.33;1.10;;;;;;;;;;4977372;28;20843;-73
2024/01/04 12:13:37;;;;;;;1.80;1.10;;;;;;;;;;4975779;28;20424;-73
2024/01/04 12:16:03;;;;;;;1.60;1.00;;;;;;;;;;4976102;28;20455;-72
2024/01/04 12:18:32;;;;;;;2.73;1.33;;;;;;;;;;4975813;28;20412;-72
2024/01/04 12:21:03;;;;;;;3.40;1.60;;;;;;;;;;4975615;28;20428;-73
2024/01/04 12:23:29;;;;;;;6.43;1.43;;;;;;;;;;4976487;28;20478;-72
2024/01/04 12:25:56;;;;;;;5.13;1.73;;;;;;;;;;4977171;28;20917;-72
2024/01/04 12:28:22;;;;;;;4.00;1.63;;;;;;;;;;4977131;28;20480;-72
2024/01/04 12:30:48;;;;;;;4.67;1.70;;;;;;;;;;4976939;28;20435;-71
2024/01/04 12:33:14;;;;;;;2.67;1.57;;;;;;;;;;4976338;28;20909;-71
2024/01/04 12:35:41;;;;;;;7.30;1.80;;;;;;;;;;4976311;28;20475;-71
2024/01/04 12:38:07;;;;;;;3.33;1.33;;;;;;;;;;4971685;28;20431;-72
2024/01/04 12:40:40;;;;;;;3.67;2.00;;;;;;;;;;4970089;28;20921;-71
2024/01/04 12:43:07;;;;;;;3.20;1.50;;;;;;;;;;4975468;28;20966;-72
2024/01/04 12:45:34;;;;;;;5.77;1.70;;;;;;;;;;4976027;28;20420;-73
2024/01/04 12:48:05;;;;;;;5.60;2.23;;;;;;;;;;4975931;28;20443;-72
2024/01/04 12:50:31;;;;;;;3.33;1.77;;;;;;;;;;4975795;28;20435;-73
2024/01/04 12:52:57;;;;;;;6.67;1.73;;;;;;;;;;4975954;28;20483;-72
2024/01/04 12:55:26;;;;;;;1.87;1.67;;;;;;;;;;4979744;28;20462;-72
2024/01/04 12:57:52;;;;;;;3.03;1.57;;;;;;;;;;4975814;28;20416;-72
2024/01/04 13:00:18;;;;;;;5.73;2.10;;;;;;;;;;4967962;28;20835;-72
2024/01/04 13:02:45;;;;;;;3.70;1.83;;;;;;;;;;4961076;28;20432;-73
2024/01/04 13:05:11;;;;;;;4.50;2.00;;;;;;;;;;4975321;28;20412;-73
2024/01/04 13:07:37;;;;;;;4.87;1.40;;;;;;;;;;4976583;28;20460;-73
2024/01/04 13:10:04;;;;;;;8.73;2.00;;;;;;;;;;4984150;28;20428;-74
2024/01/04 13:12:30;;;;;;;5.00;2.07;;;;;;;;;;4970898;28;20451;-74
2024/01/04 13:14:57;;;;;;;14.63;2.97;;;;;;;;;;4967049;28;20867;-74
2024/01/04 13:17:27;;;;;;;5.80;1.80;;;;;;;;;;4963650;28;20499;-74
2024/01/04 13:19:53;;;;;;;3.90;1.53;;;;;;;;;;4965930;28;20439;-72
2024/01/04 13:22:19;;;;;;;6.13;2.10;;;;;;;;;;4965194;28;20923;-73
2024/01/04 13:24:45;;;;;;;5.63;1.97;;;;;;;;;;4965166;28;20432;-72
2024/01/04 13:27:11;;;;;;;8.13;1.77;;;;;;;;;;4955869;28;20452;-73
2024/01/04 13:29:37;;;;;;;5.40;1.87;;;;;;;;;;4954714;28;20479;-74
2024/01/04 13:32:04;;;;;;;3.37;1.73;;;;;;;;;;4961773;28;20440;-73
2024/01/04 13:34:30;;;;;;;2.83;1.40;;;;;;;;;;4974013;28;20428;-72
2024/01/04 13:36:56;;;;;;;3.27;1.43;;;;;;;;;;4969402;28;20423;-73
2024/01/04 13:39:22;;;;;;;3.27;1.47;;;;;;;;;;4974208;28;20416;-73
2024/01/04 13:41:49;;;;;;;5.83;1.80;;;;;;;;;;4974159;28;20735;-73
2024/01/04 13:44:15;;;;;;;7.70;2.07;;;;;;;;;;4973954;28;20858;-73
2024/01/04 13:46:41;;;;;;;10.20;1.90;;;;;;;;;;4974109;28;20458;-73
2024/01/04 13:49:07;;;;;;;7.17;1.70;;;;;;;;;;4974001;28;20419;-72
2024/01/04 13:51:33;;;;;;;11.23;3.03;;;;;;;;;;4973664;28;20993;-72
2024/01/04 13:53:59;;;;;;;19.77;3.27;;;;;;;;;;4973564;28;20442;-73
2024/01/04 13:56:25;;;;;;;6.43;1.77;;;;;;;;;;4973903;28;20494;-75
2024/01/04 13:58:51;;;;;;;7.77;1.93;;;;;;;;;;4974011;28;20419;-73
2024/01/04 14:01:17;;;;;;;14.80;1.70;;;;;;;;;;4973680;28;20452;-73
2024/01/04 14:03:43;;;;;;;4.97;1.40;;;;;;;;;;4973596;28;20415;-73
2024/01/04 14:06:09;;;;;;;8.00;1.90;;;;;;;;;;4973671;28;20931;-74
2024/01/04 14:08:35;;;;;;;2.60;1.70;;;;;;;;;;4973558;28;20430;-73
2024/01/04 14:11:02;;;;;;;3.47;1.53;;;;;;;;;;4973763;28;20555;-73
2024/01/04 14:13:28;;;;;;;7.43;2.07;;;;;;;;;;4973492;28;20893;-72
2024/01/04 14:15:54;;;;;;;4.63;1.67;;;;;;;;;;4973731;28;21050;-73
2024/01/04 14:18:21;;;;;;;3.70;1.77;;;;;;;;;;4973291;28;20528;-73
2024/01/04 14:20:47;;;;;;;5.80;1.70;;;;;;;;;;4973489;28;20446;-72
2024/01/04 14:23:13;;;;;;;5.70;1.90;;;;;;;;;;4973350;28;20420;-72
2024/01/04 14:25:39;;;;;;;5.60;1.77;;;;;;;;;;4972999;28;20458;-73
2024/01/04 14:28:05;;;;;;;6.77;1.80;;;;;;;;;;4973324;28;20420;-72
2024/01/04 14:30:31;;;;;;;10.63;1.90;;;;;;;;;;4973167;28;20691;-71
2024/01/04 14:32:57;;;;;;;9.77;2.10;;;;;;;;;;4972993;28;20418;-72
2024/01/04 14:35:24;;;;;;;6.60;2.27;;;;;;;;;;4973589;28;20566;-72
2024/01/04 14:37:50;;;;;;;7.27;1.97;;;;;;;;;;4970296;28;20415;-73
2024/01/04 14:40:16;;;;;;;6.87;1.70;;;;;;;;;;4965201;28;20495;-72
2024/01/04 14:42:44;;;;;;;6.70;1.90;;;;;;;;;;4964905;28;20421;-72
2024/01/04 14:45:15;;;;;;;16.13;2.10;;;;;;;;;;4964640;28;20499;-73
2024/01/04 14:47:41;;;;;;;6.27;1.80;;;;;;;;;;4963332;28;20416;-73
2024/01/04 14:50:10;;;;;;;3.13;1.67;;;;;;;;;;4962415;28;20492;-72
2024/01/04 14:52:36;;;;;;;7.97;2.00;;;;;;;;;;4966858;28;20425;-72
2024/01/04 14:55:03;;;;;;;9.80;2.57;;;;;;;;;;4967230;28;20815;-72
2024/01/04 14:57:28;;;;;;;2.60;1.80;;;;;;;;;;4972932;28;20502;-73
2024/01/04 14:59:54;;;;;;;6.20;2.50;;;;;;;;;;4967708;28;20888;-73
2024/01/04 15:02:20;;;;;;;5.67;2.10;;;;;;;;;;4964328;28;20452;-73
2024/01/04 15:04:46;;;;;;;1.87;1.30;;;;;;;;;;4966611;28;20412;-73
2024/01/04 15:07:13;;;;;;;3.03;1.73;;;;;;;;;;4967986;28;20447;-73
2024/01/04 15:09:39;;;;;;;12.67;1.83;;;;;;;;;;4961039;28;20455;-73
2024/01/04 15:12:05;;;;;;;5.70;1.90;;;;;;;;;;4958303;28;20449;-73
2024/01/04 15:14:31;;;;;;;4.67;1.67;;;;;;;;;;4970063;28;20499;-73
2024/01/04 15:16:57;;;;;;;6.23;2.47;;;;;;;;;;4966625;28;20833;-72
2024/01/04 15:19:23;;;;;;;6.57;2.77;;;;;;;;;;4969415;28;20440;-71
2024/01/04 15:21:50;;;;;;;8.27;2.37;;;;;;;;;;4960888;28;20428;-73
2024/01/04 15:24:16;;;;;;;9.73;2.23;;;;;;;;;;4953380;28;20504;-72
2024/01/04 15:26:42;;;;;;;6.73;1.77;;;;;;;;;;4963655;28;20479;-72
2024/01/04 15:29:08;;;;;;;5.00;1.80;;;;;;;;;;4968007;28;20535;-72
2024/01/04 15:31:34;;;;;;;5.23;2.77;;;;;;;;;;4965155;28;20556;-72
2024/01/04 15:34:00;;;;;;;7.00;2.20;;;;;;;;;;4972568;28;20863;-72
2024/01/04 15:36:26;;;;;;;6.30;2.47;;;;;;;;;;4971992;28;20467;-72
2024/01/04 15:38:52;;;;;;;2.43;1.50;;;;;;;;;;4976477;28;20423;-71
2024/01/04 15:41:18;;;;;;;1.43;1.33;;;;;;;;;;4976323;28;20436;-72
2024/01/04 15:43:44;;;;;;;4.90;1.60;;;;;;;;;;4976354;28;20415;-71
2024/01/04 15:46:10;;;;;;;3.20;1.40;;;;;;;;;;4976640;28;20428;-72
2024/01/04 15:48:36;;;;;;;3.40;1.40;;;;;;;;;;4977132;28;20424;-71
2024/01/04 15:51:02;;;;;;;8.57;1.60;;;;;;;;;;4978878;28;20506;-74
2024/01/04 15:53:28;;;;;;;10.23;2.20;;;;;;;;;;4977812;28;20423;-72
2024/01/04 15:55:54;;;;;;;5.50;1.90;;;;;;;;;;4956961;28;20468;-72
2024/01/04 15:58:23;;;;;;;8.13;2.27;;;;;;;;;;4962483;28;20503;-71
2024/01/04 16:00:50;;;;;;;5.80;2.83;;;;;;;;;;4968349;28;20477;-72
2024/01/04 16:03:16;;;;;;;4.60;1.90;;;;;;;;;;4974683;28;20408;-72
2024/01/04 16:05:42;;;;;;;4.70;2.20;;;;;;;;;;4975283;28;20416;-71
2024/01/04 16:08:08;;;;;;;8.03;2.43;;;;;;;;;;4976039;28;20818;-71
2024/01/04 16:10:34;;;;;;;4.67;2.10;;;;;;;;;;4990748;28;20812;-71
2024/01/04 16:13:00;;;;;;;8.30;3.53;;;;;;;;;;4975903;28;20466;-73
2024/01/04 16:15:27;;;;;;;2.53;1.80;;;;;;;;;;4975536;28;20463;-72
2024/01/04 16:17:53;;;;;;;4.30;1.90;;;;;;;;;;4966955;28;20420;-71
2024/01/04 16:20:19;;;;;;;3.73;2.60;;;;;;;;;;4970985;28;20506;-71
2024/01/04 16:22:45;;;;;;;2.23;1.90;;;;;;;;;;4975393;28;20755;-71
2024/01/04 16:25:11;;;;;;;6.50;2.60;;;;;;;;;;4975393;28;20416;-72
2024/01/04 16:27:37;;;;;;;8.93;2.70;;;;;;;;;;4975327;28;20518;-71
2024/01/04 16:30:03;;;;;;;4.40;2.57;;;;;;;;;;4971644;28;20508;-73
2024/01/04 16:32:29;;;;;;;6.93;2.90;;;;;;;;;;4972955;28;20447;-73
2024/01/04 16:34:56;;;;;;;7.03;3.10;;;;;;;;;;4974034;28;20566;-70
2024/01/04 16:37:22;;;;;;;4.67;2.37;;;;;;;;;;4964934;28;20507;-71
2024/01/04 16:39:48;;;;;;;4.53;2.20;;;;;;;;;;4966367;28;20865;-71
2024/01/04 16:42:14;;;;;;;5.77;2.43;;;;;;;;;;4974323;28;20494;-70
2024/01/04 16:44:40;;;;;;;3.27;2.00;;;;;;;;;;4975114;28;20416;-71
2024/01/04 16:47:06;;;;;;;4.53;2.03;;;;;;;;;;4969566;28;21071;-71
2024/01/04 16:49:35;;;;;;;6.10;2.10;;;;;;;;;;4973217;28;20908;-72
2024/01/04 16:52:01;;;;;;;3.57;1.93;;;;;;;;;;4975499;28;20523;-72
2024/01/04 16:54:27;;;;;;;6.93;2.50;;;;;;;;;;4974989;28;20499;-72
2024/01/04 16:56:55;;;;;;;3.70;2.00;;;;;;;;;;4973122;28;20820;-74
2024/01/04 16:59:21;;;;;;;2.73;1.90;;;;;;;;;;4972057;28;20408;-74
2024/01/04 17:01:47;;;;;;;7.97;2.30;;;;;;;;;;4966256;28;20513;-73
2024/01/04 17:04:13;;;;;;;4.67;2.43;;;;;;;;;;4968721;28;20424;-73
2024/01/04 17:06:39;;;;;;;6.13;2.27;;;;;;;;;;4965933;28;20500;-73
2024/01/04 17:09:07;;;;;;;7.90;2.20;;;;;;;;;;4969720;28;20419;-74
2024/01/04 17:11:33;;;;;;;7.10;2.53;;;;;;;;;;4975554;28;20463;-74
2024/01/04 17:13:59;;;;;;;4.40;1.80;;;;;;;;;;4983036;28;20936;-74
2024/01/04 17:16:25;;;;;;;3.70;2.33;;;;;;;;;;4977061;28;20476;-73
2024/01/04 17:18:50;;;;;;;15.03;3.03;;;;;;;;;;4968763;28;20934;-73
2024/01/04 17:21:16;;;;;;;6.37;2.93;;;;;;;;;;4969530;28;20773;-73
2024/01/04 17:23:43;;;;;;;4.67;3.23;;;;;;;;;;4975150;28;20994;-72
2024/01/04 17:26:10;;;;;;;9.07;3.53;;;;;;;;;;4974982;28;20458;-72
2024/01/04 17:28:38;;;;;;;13.67;5.40;;;;;;;;;;4975214;28;20448;-72
2024/01/04 17:31:04;;;;;;;25.77;6.73;;;;;;;;;;4981931;28;20436;-73
2024/01/04 17:33:30;;;;;;;20.97;7.83;;;;;;;;;;4992662;28;20484;-72
2024/01/04 17:35:58;;;;;;;18.60;6.53;;;;;;;;;;4996602;28;20475;-72
2024/01/04 17:38:24;;;;;;;14.23;5.70;;;;;;;;;;4982918;28;20420;-73
2024/01/04 17:40:50;;;;;;;12.53;4.23;;;;;;;;;;4979741;28;20431;-73
2024/01/04 17:43:16;;;;;;;10.90;3.33;;;;;;;;;;4970531;28;20452;-73
2024/01/04 17:45:42;;;;;;;8.87;3.20;;;;;;;;;;4966528;28;20428;-73
2024/01/04 17:48:08;;;;;;;14.43;3.10;;;;;;;;;;4978856;28;20479;-73
2024/01/04 17:50:37;;;;;;;16.00;5.30;;;;;;;;;;4981720;28;20829;-72
2024/01/04 17:53:03;;;;;;;8.63;4.03;;;;;;;;;;4974255;28;20474;-72
2024/01/04 17:55:29;;;;;;;14.47;4.33;;;;;;;;;;4973026;28;20471;-72
2024/01/04 17:57:55;;;;;;;21.77;5.50;;;;;;;;;;4972240;28;20416;-73
2024/01/04 18:00:21;;;;;;;9.17;4.70;;;;;;;;;;4970101;28;20441;-73
2024/01/04 18:02:47;;;;;;;14.30;5.57;;;;;;;;;;4973982;28;20420;-72
2024/01/04 18:05:13;;;;;;;29.03;8.47;;;;;;;;;;4964312;28;20416;-72
2024/01/04 18:07:39;;;;;;;31.87;8.57;;;;;;;;;;4972045;28;20923;-74
2024/01/04 18:10:06;;;;;;;21.83;7.33;;;;;;;;;;4958214;28;20428;-74
2024/01/04 18:12:32;;;;;;;7.70;3.40;;;;;;;;;;4963970;28;20447;-73
2024/01/04 18:14:59;;;;;;;7.43;3.67;;;;;;;;;;4972568;28;20459;-73
2024/01/04 18:17:26;;;;;;;12.87;4.53;;;;;;;;;;4997456;23;20491;-75
2024/01/04 18:19:52;;;;;;;14.43;3.70;;;;;;;;;;4987730;28;20412;-75
2024/01/04 18:22:18;;;;;;;13.47;3.63;;;;;;;;;;4978623;28;20823;-77
2024/01/04 18:24:44;;;;;;;18.43;3.73;;;;;;;;;;4982120;28;20440;-77
2024/01/04 18:27:10;;;;;;;15.30;3.50;;;;;;;;;;4975405;28;21009;-78
2024/01/04 18:29:36;;;;;;;16.13;4.23;;;;;;;;;;4976298;28;20427;-80
2024/01/04 18:32:02;;;;;;;21.70;6.70;;;;;;;;;;4979030;28;20408;-76
2024/01/04 18:34:29;;;;;;;11.97;3.90;;;;;;;;;;4985843;28;20416;-74
2024/01/04 18:36:55;;;;;;;19.07;5.07;;;;;;;;;;4965340;28;20428;-74
2024/01/04 18:39:22;;;;;;;16.20;3.90;;;;;;;;;;4972502;28;20415;-74
2024/01/04 18:41:48;;;;;;;11.37;4.13;;;;;;;;;;4973978;28;20408;-75
2024/01/04 18:44:14;;;;;;;12.27;4.87;;;;;;;;;;4979160;28;20426;-78
2024/01/04 18:46:40;;;;;;;6.37;3.03;;;;;;;;;;4978395;28;20456;-75
2024/01/04 18:49:06;;;;;;;6.60;3.70;;;;;;;;;;4972282;28;20420;-75
2024/01/04 18:51:32;;;;;;;6.93;3.70;;;;;;;;;;4973097;28;20443;-79
2024/01/04 18:53:58;;;;;;;9.83;3.60;;;;;;;;;;4974780;28;20450;-79
2024/01/04 18:56:24;;;;;;;7.43;3.00;;;;;;;;;;4968729;28;20924;-78
2024/01/04 18:58:51;;;;;;;10.77;3.30;;;;;;;;;;4974282;28;20784;-75
2024/01/04 19:01:18;;;;;;;8.83;3.00;;;;;;;;;;4973265;28;20412;-79
2024/01/04 19:03:43;;;;;;;14.47;3.47;;;;;;;;;;4973203;28;20873;-79
2024/01/04 19:06:09;;;;;;;13.77;3.60;;;;;;;;;;4973616;28;20539;-79
2024/01/04 19:08:35;;;;;;;10.83;3.27;;;;;;;;;;4974826;28;20424;-80
2024/01/04 19:11:03;;;;;;;11.13;3.63;;;;;;;;;;4971630;28;20810;-79
2024/01/04 19:13:29;;;;;;;7.87;3.27;;;;;;;;;;4977869;28;20424;-79
2024/01/04 19:15:56;;;;;;;8.40;3.60;;;;;;;;;;4978212;28;20527;-78
2024/01/04 19:18:22;;;;;;;9.10;3.67;;;;;;;;;;4988053;28;20459;-79
2024/01/04 19:20:48;;;;;;;10.40;4.07;;;;;;;;;;4988469;28;20459;-78
2024/01/04 19:23:15;;;;;;;7.37;3.00;;;;;;;;;;4970184;28;20412;-79
2024/01/04 19:25:41;;;;;;;9.80;4.10;;;;;;;;;;4981750;28;20536;-79
2024/01/04 19:28:07;;;;;;;14.73;3.10;;;;;;;;;;4972283;28;20487;-80
2024/01/04 19:30:33;;;;;;;9.20;3.30;;;;;;;;;;4976846;28;20426;-75
2024/01/04 19:32:59;;;;;;;8.77;4.30;;;;;;;;;;4977129;28;20415;-74
2024/01/04 19:35:25;;;;;;;19.90;6.63;;;;;;;;;;4975954;28;20470;-74
2024/01/04 19:37:51;;;;;;;9.30;4.17;;;;;;;;;;4975499;28;20419;-77
2024/01/04 19:40:17;;;;;;;15.00;4.27;;;;;;;;;;4976226;28;20427;-77
2024/01/04 19:42:44;;;;;;;12.73;3.80;;;;;;;;;;4976428;28;20416;-77
2024/01/04 19:45:11;;;;;;;7.67;4.40;;;;;;;;;;4975326;28;20430;-77
2024/01/04 19:47:36;;;;;;;10.90;4.40;;;;;;;;;;4975372;28;20459;-78
2024/01/04 19:50:03;;;;;;;8.27;4.00;;;;;;;;;;4976818;28;20415;-78
2024/01/04 19:52:29;;;;;;;16.37;5.10;;;;;;;;;;4991473;28;20427;-79
2024/01/04 19:54:56;;;;;;;11.87;5.50;;;;;;;;;;4971446;28;20582;-78
2024/01/04 19:57:22;;;;;;;14.33;6.07;;;;;;;;;;4972683;28;20524;-77
2024/01/04 19:59:48;;;;;;;16.77;6.70;;;;;;;;;;4983440;28;20413;-74
2024/01/04 20:02:14;;;;;;;12.67;5.90;;;;;;;;;;4984878;28;20422;-78
2024/01/04 20:04:40;;;;;;;13.77;6.67;;;;;;;;;;4993664;28;20436;-80
2024/01/04 20:07:11;;;;;;;15.63;7.00;;;;;;;;;;4996277;28;20443;-79
2024/01/04 20:09:37;;;;;;;18.97;6.07;;;;;;;;;;4984012;28;20442;-78
2024/01/04 20:12:03;;;;;;;25.63;7.27;;;;;;;;;;4977573;28;20416;-78
2024/01/04 20:14:29;;;;;;;30.87;6.80;;;;;;;;;;4974568;28;20516;-78
2024/01/04 20:16:55;;;;;;;15.53;6.43;;;;;;;;;;4971026;28;20508;-79
2024/01/04 20:19:21;;;;;;;23.10;6.80;;;;;;;;;;4971878;28;20416;-80
2024/01/04 20:21:48;;;;;;;18.70;6.97;;;;;;;;;;4975580;28;20420;-79
2024/01/04 20:24:16;;;;;;;15.93;6.97;;;;;;;;;;4977451;28;20786;-80
2024/01/04 20:26:42;;;;;;;20.73;7.83;;;;;;;;;;4977150;28;20443;-78
2024/01/04 20:29:10;;;;;;;20.57;7.33;;;;;;;;;;4973095;28;20448;-78
2024/01/04 20:31:36;;;;;;;14.63;6.23;;;;;;;;;;4969193;28;20463;-76
2024/01/04 20:34:02;;;;;;;17.87;7.40;;;;;;;;;;4975232;28;20471;-77